sensor_id;sensor_type;location;lat;lon;timestamp;temperature;humidity
18741;DHT22;9499;52.472;13.448;2023-11-18T00:00:07;5.50;99.90
18741;DHT22;9499;52.472;13.448;2023-11-18T00:02:38;5.50;99.90
18741;DHT22;9499;52.472;13.448;2023-11-18T00:05:05;5.50;99.90
18741;DHT22;9499;52.472;13.448;2023-11-18T00:07:33;5.50;99.90
18741;DHT22;9499;52.472;13.448;2023-11-18T00:09:59;5.50;99.90
18741;DHT22;9499;52.472;13.448;2023-11-18T00:12:26;5.50;99.90
18741;DHT22;9499;52.472;13.448;2023-11-18T00:14:53;5.50;99.90
18741;DHT22;9499;52.472;13.448;2023-11-18T00:17:20;5.50;99.90
18741;DHT22;9499;52.472;13.448;2023-11-18T00:19:48;5.50;99.90
18741;DHT22;9499;52.472;13.448;2023-11-18T00:22:14;5.50;99.90
18741;DHT22;9499;52.472;13.448;2023-11-18T00:24:41;5.50;99.90
18741;DHT22;9499;52.472;13.448;2023-11-18T00:27:09;5.50;99.90
18741;DHT22;9499;52.472;13.448;2023-11-18T00:29:36;5.40;99.90
18741;DHT22;9499;52.472;13.448;2023-11-18T00:32:05;5.40;99.90
18741;DHT22;9499;52.472;13.448;2023-11-18T00:34:32;5.40;99.90
18741;DHT22;9499;52.472;13.448;2023-11-18T00:36:59;5.50;99.90
18741;DHT22;9499;52.472;13.448;2023-11-18T00:39:25;5.50;99.90
18741;DHT22;9499;52.472;13.448;2023-11-18T00:41:53;5.50;99.90
18741;DHT22;9499;52.472;13.448;2023-11-18T00:44:21;5.50;99.90
18741;DHT22;9499;52.472;13.448;2023-11-18T00:46:48;5.50;99.90
18741;DHT22;9499;52.472;13.448;2023-11-18T00:49:16;5.50;99.90
18741;DHT22;9499;52.472;13.448;2023-11-18T00:51:42;5.40;99.90
18741;DHT22;9499;52.472;13.448;2023-11-18T00:54:09;5.40;99.90
18741;DHT22;9499;52.472;13.448;2023-11-18T00:56:36;5.40;99.90
18741;DHT22;9499;52.472;13.448;2023-11-18T00:59:03;5.40;99.90
18741;DHT22;9499;52.472;13.448;2023-11-18T01:01:31;5.40;99.90
18741;DHT22;9499;52.472;13.448;2023-11-18T01:03:58;5.40;99.90
18741;DHT22;9499;52.472;13.448;2023-11-18T01:06:26;5.40;99.90
18741;DHT22;9499;52.472;13.448;2023-11-18T01:08:52;5.40;99.90
18741;DHT22;9499;52.472;13.448;2023-11-18T01:11:19;5.40;99.90
18741;DHT22;9499;52.472;13.448;2023-11-18T01:13:47;5.30;99.90
18741;DHT22;9499;52.472;13.448;2023-11-18T01:16:14;5.30;99.90
18741;DHT22;9499;52.472;13.448;2023-11-18T01:18:41;5.30;99.90
18741;DHT22;9499;52.472;13.448;2023-11-18T01:21:07;5.30;99.90
18741;DHT22;9499;52.472;13.448;2023-11-18T01:23:36;5.30;99.90
18741;DHT22;9499;52.472;13.448;2023-11-18T01:26:03;5.30;99.90
18741;DHT22;9499;52.472;13.448;2023-11-18T01:28:30;5.30;99.90
18741;DHT22;9499;52.472;13.448;2023-11-18T01:30:58;5.30;99.90
18741;DHT22;9499;52.472;13.448;2023-11-18T01:33:24;5.30;99.90
18741;DHT22;9499;52.472;13.448;2023-11-18T01:35:51;5.30;99.90
18741;DHT22;9499;52.472;13.448;2023-11-18T01:38:18;5.30;99.90
18741;DHT22;9499;52.472;13.448;2023-11-18T01:40:47;5.40;99.90
18741;DHT22;9499;52.472;13.448;2023-11-18T01:43:13;5.30;99.90
18741;DHT22;9499;52.472;13.448;2023-11-18T01:45:40;5.40;99.90
18741;DHT22;9499;52.472;13.448;2023-11-18T01:48:07;5.40;99.90
18741;DHT22;9499;52.472;13.448;2023-11-18T01:50:35;5.40;99.90
18741;DHT22;9499;52.472;13.448;2023-11-18T01:53:02;5.40;99.90
18741;DHT22;9499;52.472;13.448;2023-11-18T01:55:29;5.40;99.90
18741;DHT22;9499;52.472;13.448;2023-11-18T01:57:57;5.40;99.90
18741;DHT22;9499;52.472;13.448;2023-11-18T02:00:24;5.40;99.90
18741;DHT22;9499;52.472;13.448;2023-11-18T02:02:51;5.30;99.90
18741;DHT22;9499;52.472;13.448;2023-11-18T02:05:17;5.40;99.90
18741;DHT22;9499;52.472;13.448;2023-11-18T02:07:44;5.30;99.90
18741;DHT22;9499;52.472;13.448;2023-11-18T02:10:11;5.30;99.90
18741;DHT22;9499;52.472;13.448;2023-11-18T02:12:44;5.30;99.90
18741;DHT22;9499;52.472;13.448;2023-11-18T02:15:14;5.30;99.90
18741;DHT22;9499;52.472;13.448;2023-11-18T02:17:43;5.30;99.90
18741;DHT22;9499;52.472;13.448;2023-11-18T02:20:12;5.30;99.90
18741;DHT22;9499;52.472;13.448;2023-11-18T02:22:42;5.30;99.90
18741;DHT22;9499;52.472;13.448;2023-11-18T02:25:09;5.30;99.90
18741;DHT22;9499;52.472;13.448;2023-11-18T02:27:37;5.30;99.90
18741;DHT22;9499;52.472;13.448;2023-11-18T02:30:05;5.30;99.90
18741;DHT22;9499;52.472;13.448;2023-11-18T02:32:41;5.30;99.90
18741;DHT22;9499;52.472;13.448;2023-11-18T02:35:13;5.40;99.90
18741;DHT22;9499;52.472;13.448;2023-11-18T02:37:45;5.30;99.90
18741;DHT22;9499;52.472;13.448;2023-11-18T02:40:15;5.30;99.90
18741;DHT22;9499;52.472;13.448;2023-11-18T02:42:45;5.40;99.90
18741;DHT22;9499;52.472;13.448;2023-11-18T02:45:15;5.40;99.90
18741;DHT22;9499;52.472;13.448;2023-11-18T02:47:43;5.40;99.90
18741;DHT22;9499;52.472;13.448;2023-11-18T02:50:09;5.40;99.90
18741;DHT22;9499;52.472;13.448;2023-11-18T02:52:36;5.40;99.90
18741;DHT22;9499;52.472;13.448;2023-11-18T02:55:03;5.40;99.90
18741;DHT22;9499;52.472;13.448;2023-11-18T02:57:31;5.30;99.90
18741;DHT22;9499;52.472;13.448;2023-11-18T02:59:59;5.30;99.90
18741;DHT22;9499;52.472;13.448;2023-11-18T03:02:26;5.30;99.90
18741;DHT22;9499;52.472;13.448;2023-11-18T03:04:55;5.30;99.90
18741;DHT22;9499;52.472;13.448;2023-11-18T03:07:22;5.30;99.90
18741;DHT22;9499;52.472;13.448;2023-11-18T03:09:48;5.20;99.90
18741;DHT22;9499;52.472;13.448;2023-11-18T03:12:15;5.20;99.90
18741;DHT22;9499;52.472;13.448;2023-11-18T03:14:41;5.30;99.90
18741;DHT22;9499;52.472;13.448;2023-11-18T03:17:10;5.20;99.90
18741;DHT22;9499;52.472;13.448;2023-11-18T03:19:36;5.30;99.90
18741;DHT22;9499;52.472;13.448;2023-11-18T03:22:03;5.30;99.90
18741;DHT22;9499;52.472;13.448;2023-11-18T03:24:29;5.30;99.90
18741;DHT22;9499;52.472;13.448;2023-11-18T03:26:56;5.30;99.90
18741;DHT22;9499;52.472;13.448;2023-11-18T03:29:22;5.30;99.90
18741;DHT22;9499;52.472;13.448;2023-11-18T03:31:49;5.30;99.90
18741;DHT22;9499;52.472;13.448;2023-11-18T03:34:17;5.30;99.90
18741;DHT22;9499;52.472;13.448;2023-11-18T03:36:45;5.30;99.90
18741;DHT22;9499;52.472;13.448;2023-11-18T03:39:12;5.30;99.90
18741;DHT22;9499;52.472;13.448;2023-11-18T03:41:39;5.30;99.90
18741;DHT22;9499;52.472;13.448;2023-11-18T03:44:05;5.30;99.90
18741;DHT22;9499;52.472;13.448;2023-11-18T03:46:32;5.20;99.90
18741;DHT22;9499;52.472;13.448;2023-11-18T03:48:59;5.30;99.90
18741;DHT22;9499;52.472;13.448;2023-11-18T03:51:27;5.30;99.90
18741;DHT22;9499;52.472;13.448;2023-11-18T03:53:54;5.20;99.90
18741;DHT22;9499;52.472;13.448;2023-11-18T03:56:20;5.20;99.90
18741;DHT22;9499;52.472;13.448;2023-11-18T03:58:47;5.20;99.90
18741;DHT22;9499;52.472;13.448;2023-11-18T04:01:19;5.20;99.90
18741;DHT22;9499;52.472;13.448;2023-11-18T04:03:46;5.20;99.90
18741;DHT22;9499;52.472;13.448;2023-11-18T04:06:12;5.20;99.90
18741;DHT22;9499;52.472;13.448;2023-11-18T04:08:44;5.20;99.90
18741;DHT22;9499;52.472;13.448;2023-11-18T04:11:10;5.20;99.90
18741;DHT22;9499;52.472;13.448;2023-11-18T04:13:37;5.20;99.90
18741;DHT22;9499;52.472;13.448;2023-11-18T04:16:04;5.30;99.90
18741;DHT22;9499;52.472;13.448;2023-11-18T04:18:31;5.20;99.90
18741;DHT22;9499;52.472;13.448;2023-11-18T04:20:57;5.20;99.90
18741;DHT22;9499;52.472;13.448;2023-11-18T04:23:24;5.20;99.90
18741;DHT22;9499;52.472;13.448;2023-11-18T04:25:52;5.20;99.90
18741;DHT22;9499;52.472;13.448;2023-11-18T04:28:18;5.30;99.90
18741;DHT22;9499;52.472;13.448;2023-11-18T04:30:45;5.20;99.90
18741;DHT22;9499;52.472;13.448;2023-11-18T04:33:12;5.20;99.90
18741;DHT22;9499;52.472;13.448;2023-11-18T04:35:39;5.20;99.90
18741;DHT22;9499;52.472;13.448;2023-11-18T04:38:06;5.20;99.90
18741;DHT22;9499;52.472;13.448;2023-11-18T04:40:32;5.20;99.90
18741;DHT22;9499;52.472;13.448;2023-11-18T04:43:01;5.20;99.90
18741;DHT22;9499;52.472;13.448;2023-11-18T04:45:27;5.20;99.90
18741;DHT22;9499;52.472;13.448;2023-11-18T04:47:55;5.20;99.90
18741;DHT22;9499;52.472;13.448;2023-11-18T04:50:22;5.30;99.90
18741;DHT22;9499;52.472;13.448;2023-11-18T04:52:48;5.30;99.90
18741;DHT22;9499;52.472;13.448;2023-11-18T04:55:15;5.30;99.90
18741;DHT22;9499;52.472;13.448;2023-11-18T04:57:42;5.20;99.90
18741;DHT22;9499;52.472;13.448;2023-11-18T05:00:10;5.20;99.90
18741;DHT22;9499;52.472;13.448;2023-11-18T05:02:37;5.20;99.90
18741;DHT22;9499;52.472;13.448;2023-11-18T05:05:04;5.20;99.90
18741;DHT22;9499;52.472;13.448;2023-11-18T05:07:31;5.20;99.90
18741;DHT22;9499;52.472;13.448;2023-11-18T05:09:58;5.10;99.90
18741;DHT22;9499;52.472;13.448;2023-11-18T05:12:24;5.10;99.90
18741;DHT22;9499;52.472;13.448;2023-11-18T05:14:51;5.10;99.90
18741;DHT22;9499;52.472;13.448;2023-11-18T05:17:18;5.10;99.90
18741;DHT22;9499;52.472;13.448;2023-11-18T05:19:45;5.10;99.90
18741;DHT22;9499;52.472;13.448;2023-11-18T05:22:12;5.20;99.90
18741;DHT22;9499;52.472;13.448;2023-11-18T05:24:38;5.20;99.90
18741;DHT22;9499;52.472;13.448;2023-11-18T05:27:05;5.10;99.90
18741;DHT22;9499;52.472;13.448;2023-11-18T05:29:33;5.10;99.90
18741;DHT22;9499;52.472;13.448;2023-11-18T05:31:59;5.10;99.90
18741;DHT22;9499;52.472;13.448;2023-11-18T05:34:27;5.10;99.90
18741;DHT22;9499;52.472;13.448;2023-11-18T05:36:54;5.10;99.90
18741;DHT22;9499;52.472;13.448;2023-11-18T05:39:21;5.10;99.90
18741;DHT22;9499;52.472;13.448;2023-11-18T05:41:49;5.10;99.90
18741;DHT22;9499;52.472;13.448;2023-11-18T05:44:16;5.10;99.90
18741;DHT22;9499;52.472;13.448;2023-11-18T05:46:45;5.10;99.90
18741;DHT22;9499;52.472;13.448;2023-11-18T05:49:12;5.10;99.90
18741;DHT22;9499;52.472;13.448;2023-11-18T05:51:40;5.10;99.90
18741;DHT22;9499;52.472;13.448;2023-11-18T05:54:07;5.00;99.90
18741;DHT22;9499;52.472;13.448;2023-11-18T05:56:33;5.00;99.90
18741;DHT22;9499;52.472;13.448;2023-11-18T05:59:00;5.00;99.90
18741;DHT22;9499;52.472;13.448;2023-11-18T06:01:28;5.00;99.90
18741;DHT22;9499;52.472;13.448;2023-11-18T06:03:55;5.00;99.90
18741;DHT22;9499;52.472;13.448;2023-11-18T06:06:22;5.00;99.90
18741;DHT22;9499;52.472;13.448;2023-11-18T06:08:50;4.90;99.90
18741;DHT22;9499;52.472;13.448;2023-11-18T06:11:18;4.90;99.90
18741;DHT22;9499;52.472;13.448;2023-11-18T06:13:46;4.90;99.90
18741;DHT22;9499;52.472;13.448;2023-11-18T06:16:13;4.90;99.90
18741;DHT22;9499;52.472;13.448;2023-11-18T06:18:46;5.00;99.90
18741;DHT22;9499;52.472;13.448;2023-11-18T06:21:13;4.90;99.90
18741;DHT22;9499;52.472;13.448;2023-11-18T06:23:40;4.90;99.90
18741;DHT22;9499;52.472;13.448;2023-11-18T06:26:08;4.90;99.90
18741;DHT22;9499;52.472;13.448;2023-11-18T06:28:37;4.90;99.90
18741;DHT22;9499;52.472;13.448;2023-11-18T06:31:04;5.00;99.90
18741;DHT22;9499;52.472;13.448;2023-11-18T06:33:36;5.00;99.90
18741;DHT22;9499;52.472;13.448;2023-11-18T06:36:03;5.00;99.90
18741;DHT22;9499;52.472;13.448;2023-11-18T06:38:30;4.90;99.90
18741;DHT22;9499;52.472;13.448;2023-11-18T06:40:56;4.90;99.90
18741;DHT22;9499;52.472;13.448;2023-11-18T06:43:25;4.90;99.90
18741;DHT22;9499;52.472;13.448;2023-11-18T06:46:01;4.90;99.90
18741;DHT22;9499;52.472;13.448;2023-11-18T06:48:27;4.80;99.90
18741;DHT22;9499;52.472;13.448;2023-11-18T06:50:54;4.90;99.90
18741;DHT22;9499;52.472;13.448;2023-11-18T06:53:20;4.80;99.90
18741;DHT22;9499;52.472;13.448;2023-11-18T06:55:47;4.90;99.90
18741;DHT22;9499;52.472;13.448;2023-11-18T06:58:13;4.90;99.90
18741;DHT22;9499;52.472;13.448;2023-11-18T07:00:41;4.90;99.90
18741;DHT22;9499;52.472;13.448;2023-11-18T07:03:08;5.00;99.90
18741;DHT22;9499;52.472;13.448;2023-11-18T07:05:34;5.00;99.90
18741;DHT22;9499;52.472;13.448;2023-11-18T07:08:01;4.90;99.90
18741;DHT22;9499;52.472;13.448;2023-11-18T07:10:28;4.90;99.90
18741;DHT22;9499;52.472;13.448;2023-11-18T07:12:55;4.90;99.90
18741;DHT22;9499;52.472;13.448;2023-11-18T07:15:21;5.00;99.90
18741;DHT22;9499;52.472;13.448;2023-11-18T07:17:49;5.00;99.90
18741;DHT22;9499;52.472;13.448;2023-11-18T07:20:16;5.00;99.90
18741;DHT22;9499;52.472;13.448;2023-11-18T07:22:43;5.00;99.90
18741;DHT22;9499;52.472;13.448;2023-11-18T07:25:10;5.00;99.90
18741;DHT22;9499;52.472;13.448;2023-11-18T07:27:36;5.00;99.90
18741;DHT22;9499;52.472;13.448;2023-11-18T07:30:04;5.00;99.90
18741;DHT22;9499;52.472;13.448;2023-11-18T07:32:32;5.00;99.90
18741;DHT22;9499;52.472;13.448;2023-11-18T07:35:00;5.10;99.90
18741;DHT22;9499;52.472;13.448;2023-11-18T07:37:26;5.10;99.90
18741;DHT22;9499;52.472;13.448;2023-11-18T07:39:53;5.20;99.90
18741;DHT22;9499;52.472;13.448;2023-11-18T07:42:20;5.20;99.90
18741;DHT22;9499;52.472;13.448;2023-11-18T07:44:47;5.20;99.90
18741;DHT22;9499;52.472;13.448;2023-11-18T07:47:14;5.20;99.90
18741;DHT22;9499;52.472;13.448;2023-11-18T07:49:41;5.20;99.90
18741;DHT22;9499;52.472;13.448;2023-11-18T07:52:09;5.10;99.90
18741;DHT22;9499;52.472;13.448;2023-11-18T07:54:35;5.10;99.90
18741;DHT22;9499;52.472;13.448;2023-11-18T07:57:04;5.10;99.90
18741;DHT22;9499;52.472;13.448;2023-11-18T07:59:31;5.00;99.90
18741;DHT22;9499;52.472;13.448;2023-11-18T08:01:57;5.10;99.90
18741;DHT22;9499;52.472;13.448;2023-11-18T08:04:26;5.20;99.90
18741;DHT22;9499;52.472;13.448;2023-11-18T08:06:53;5.10;99.90
18741;DHT22;9499;52.472;13.448;2023-11-18T08:09:22;5.10;99.90
18741;DHT22;9499;52.472;13.448;2023-11-18T08:11:50;5.10;99.90
18741;DHT22;9499;52.472;13.448;2023-11-18T08:14:20;5.20;99.90
18741;DHT22;9499;52.472;13.448;2023-11-18T08:16:47;5.10;99.90
18741;DHT22;9499;52.472;13.448;2023-11-18T08:19:15;5.20;99.90
18741;DHT22;9499;52.472;13.448;2023-11-18T08:21:41;5.10;99.90
18741;DHT22;9499;52.472;13.448;2023-11-18T08:24:08;5.10;99.90
18741;DHT22;9499;52.472;13.448;2023-11-18T08:26:35;5.10;99.90
18741;DHT22;9499;52.472;13.448;2023-11-18T08:29:02;5.10;99.90
18741;DHT22;9499;52.472;13.448;2023-11-18T08:31:29;5.10;99.90
18741;DHT22;9499;52.472;13.448;2023-11-18T08:33:56;5.20;99.90
18741;DHT22;9499;52.472;13.448;2023-11-18T08:36:23;5.30;99.90
18741;DHT22;9499;52.472;13.448;2023-11-18T08:38:52;5.20;99.90
18741;DHT22;9499;52.472;13.448;2023-11-18T08:41:19;5.20;99.90
18741;DHT22;9499;52.472;13.448;2023-11-18T08:43:48;5.20;99.90
18741;DHT22;9499;52.472;13.448;2023-11-18T08:46:16;5.30;99.90
18741;DHT22;9499;52.472;13.448;2023-11-18T08:48:42;5.30;99.90
18741;DHT22;9499;52.472;13.448;2023-11-18T08:51:09;5.40;99.90
18741;DHT22;9499;52.472;13.448;2023-11-18T08:53:38;5.50;99.90
18741;DHT22;9499;52.472;13.448;2023-11-18T08:56:08;5.50;99.90
18741;DHT22;9499;52.472;13.448;2023-11-18T08:58:40;5.60;95.00
18741;DHT22;9499;52.472;13.448;2023-11-18T09:01:08;5.60;68.90
18741;DHT22;9499;52.472;13.448;2023-11-18T09:03:40;5.50;33.30
18741;DHT22;9499;52.472;13.448;2023-11-18T09:06:09;5.50;44.70
18741;DHT22;9499;52.472;13.448;2023-11-18T09:08:43;5.50;43.00
18741;DHT22;9499;52.472;13.448;2023-11-18T09:11:11;5.50;52.10
18741;DHT22;9499;52.472;13.448;2023-11-18T09:13:41;5.50;44.30
18741;DHT22;9499;52.472;13.448;2023-11-18T09:16:11;5.50;48.20
18741;DHT22;9499;52.472;13.448;2023-11-18T09:18:38;5.50;50.20
18741;DHT22;9499;52.472;13.448;2023-11-18T09:21:06;5.50;49.20
18741;DHT22;9499;52.472;13.448;2023-11-18T09:23:34;5.50;55.60
18741;DHT22;9499;52.472;13.448;2023-11-18T09:26:01;5.40;44.10
18741;DHT22;9499;52.472;13.448;2023-11-18T09:28:28;5.50;56.10
18741;DHT22;9499;52.472;13.448;2023-11-18T09:30:55;5.50;22.70
18741;DHT22;9499;52.472;13.448;2023-11-18T09:33:26;5.50;1.00
18741;DHT22;9499;52.472;13.448;2023-11-18T09:35:58;5.40;1.00
18741;DHT22;9499;52.472;13.448;2023-11-18T09:38:26;5.40;1.90
18741;DHT22;9499;52.472;13.448;2023-11-18T09:40:54;5.50;2.30
18741;DHT22;9499;52.472;13.448;2023-11-18T09:43:20;5.50;1.00
18741;DHT22;9499;52.472;13.448;2023-11-18T09:45:55;5.60;1.00
18741;DHT22;9499;52.472;13.448;2023-11-18T09:48:21;5.60;1.00
18741;DHT22;9499;52.472;13.448;2023-11-18T09:50:55;5.70;1.00
18741;DHT22;9499;52.472;13.448;2023-11-18T09:53:24;5.60;1.00
18741;DHT22;9499;52.472;13.448;2023-11-18T09:56:03;5.60;1.00
18741;DHT22;9499;52.472;13.448;2023-11-18T09:58:40;5.60;1.00
18741;DHT22;9499;52.472;13.448;2023-11-18T10:01:07;5.70;1.00
18741;DHT22;9499;52.472;13.448;2023-11-18T10:03:40;5.70;1.00
18741;DHT22;9499;52.472;13.448;2023-11-18T10:06:09;5.60;1.00
18741;DHT22;9499;52.472;13.448;2023-11-18T10:08:37;5.60;1.00
18741;DHT22;9499;52.472;13.448;2023-11-18T10:11:05;5.60;1.00
18741;DHT22;9499;52.472;13.448;2023-11-18T10:13:34;5.60;1.00
18741;DHT22;9499;52.472;13.448;2023-11-18T10:16:06;5.70;1.00
18741;DHT22;9499;52.472;13.448;2023-11-18T10:18:33;5.80;1.00
18741;DHT22;9499;52.472;13.448;2023-11-18T10:21:02;5.80;1.00
18741;DHT22;9499;52.472;13.448;2023-11-18T10:23:34;5.80;1.00
18741;DHT22;9499;52.472;13.448;2023-11-18T10:26:03;5.90;1.00
18741;DHT22;9499;52.472;13.448;2023-11-18T10:28:31;6.00;1.00
18741;DHT22;9499;52.472;13.448;2023-11-18T10:30:59;6.00;1.00
18741;DHT22;9499;52.472;13.448;2023-11-18T10:33:29;6.00;1.00
18741;DHT22;9499;52.472;13.448;2023-11-18T10:35:57;6.00;1.00
18741;DHT22;9499;52.472;13.448;2023-11-18T10:38:23;6.00;1.00
18741;DHT22;9499;52.472;13.448;2023-11-18T10:40:54;5.90;1.00
18741;DHT22;9499;52.472;13.448;2023-11-18T10:43:22;5.90;1.00
18741;DHT22;9499;52.472;13.448;2023-11-18T10:45:51;5.90;1.00
18741;DHT22;9499;52.472;13.448;2023-11-18T10:48:18;6.00;1.00
18741;DHT22;9499;52.472;13.448;2023-11-18T10:50:47;6.00;1.00
18741;DHT22;9499;52.472;13.448;2023-11-18T10:53:16;6.00;1.00
18741;DHT22;9499;52.472;13.448;2023-11-18T10:55:43;5.90;1.00
18741;DHT22;9499;52.472;13.448;2023-11-18T10:58:11;5.90;1.00
18741;DHT22;9499;52.472;13.448;2023-11-18T11:00:49;5.80;1.00
18741;DHT22;9499;52.472;13.448;2023-11-18T11:03:17;5.90;1.00
18741;DHT22;9499;52.472;13.448;2023-11-18T11:05:44;5.90;1.00
18741;DHT22;9499;52.472;13.448;2023-11-18T11:08:12;5.80;1.00
18741;DHT22;9499;52.472;13.448;2023-11-18T11:10:40;5.80;1.00
18741;DHT22;9499;52.472;13.448;2023-11-18T11:13:08;5.80;1.00
18741;DHT22;9499;52.472;13.448;2023-11-18T11:15:40;5.90;1.00
18741;DHT22;9499;52.472;13.448;2023-11-18T11:18:11;5.90;1.00
18741;DHT22;9499;52.472;13.448;2023-11-18T11:20:43;6.00;1.00
18741;DHT22;9499;52.472;13.448;2023-11-18T11:23:18;5.90;1.00
18741;DHT22;9499;52.472;13.448;2023-11-18T11:25:55;5.90;1.00
18741;DHT22;9499;52.472;13.448;2023-11-18T11:28:32;5.90;1.00
18741;DHT22;9499;52.472;13.448;2023-11-18T11:31:08;5.80;1.00
18741;DHT22;9499;52.472;13.448;2023-11-18T11:33:43;5.80;1.00
18741;DHT22;9499;52.472;13.448;2023-11-18T11:36:17;5.80;1.00
18741;DHT22;9499;52.472;13.448;2023-11-18T11:38:49;5.80;1.00
18741;DHT22;9499;52.472;13.448;2023-11-18T11:41:17;5.90;1.00
18741;DHT22;9499;52.472;13.448;2023-11-18T11:43:52;5.90;1.00
18741;DHT22;9499;52.472;13.448;2023-11-18T11:46:22;5.90;1.00
18741;DHT22;9499;52.472;13.448;2023-11-18T11:48:49;5.90;1.00
18741;DHT22;9499;52.472;13.448;2023-11-18T11:51:24;6.00;1.00
18741;DHT22;9499;52.472;13.448;2023-11-18T11:53:55;6.00;1.00
18741;DHT22;9499;52.472;13.448;2023-11-18T11:56:38;6.00;1.00
18741;DHT22;9499;52.472;13.448;2023-11-18T11:59:05;6.00;1.00
18741;DHT22;9499;52.472;13.448;2023-11-18T12:01:38;6.00;1.00
18741;DHT22;9499;52.472;13.448;2023-11-18T12:04:08;6.00;1.00
18741;DHT22;9499;52.472;13.448;2023-11-18T12:06:41;6.00;1.00
18741;DHT22;9499;52.472;13.448;2023-11-18T12:09:09;6.00;1.00
18741;DHT22;9499;52.472;13.448;2023-11-18T12:11:38;6.00;1.00
18741;DHT22;9499;52.472;13.448;2023-11-18T12:14:08;6.00;1.00
18741;DHT22;9499;52.472;13.448;2023-11-18T12:17:03;5.90;1.00
18741;DHT22;9499;52.472;13.448;2023-11-18T12:19:39;5.80;1.00
18741;DHT22;9499;52.472;13.448;2023-11-18T12:22:13;5.80;1.00
18741;DHT22;9499;52.472;13.448;2023-11-18T12:24:45;5.90;1.00
18741;DHT22;9499;52.472;13.448;2023-11-18T12:27:12;5.90;1.00
18741;DHT22;9499;52.472;13.448;2023-11-18T12:29:41;6.00;1.00
18741;DHT22;9499;52.472;13.448;2023-11-18T12:32:10;6.10;1.00
18741;DHT22;9499;52.472;13.448;2023-11-18T12:34:50;6.20;1.00
18741;DHT22;9499;52.472;13.448;2023-11-18T12:40:45;7.00;1.00
18741;DHT22;9499;52.472;13.448;2023-11-18T12:43:16;7.40;99.90
18741;DHT22;9499;52.472;13.448;2023-11-18T12:48:43;7.50;43.30
18741;DHT22;9499;52.472;13.448;2023-11-18T12:51:12;7.50;99.90
18741;DHT22;9499;52.472;13.448;2023-11-18T12:53:46;7.30;1.00
18741;DHT22;9499;52.472;13.448;2023-11-18T12:56:14;7.20;99.90
18741;DHT22;9499;52.472;13.448;2023-11-18T12:58:42;7.30;99.90
18741;DHT22;9499;52.472;13.448;2023-11-18T13:01:09;7.60;99.90
18741;DHT22;9499;52.472;13.448;2023-11-18T13:03:39;7.80;99.90
18741;DHT22;9499;52.472;13.448;2023-11-18T13:06:08;7.90;99.90
18741;DHT22;9499;52.472;13.448;2023-11-18T13:08:37;7.70;1.00
18741;DHT22;9499;52.472;13.448;2023-11-18T13:11:04;7.50;32.00
18741;DHT22;9499;52.472;13.448;2023-11-18T13:13:30;7.30;1.00
18741;DHT22;9499;52.472;13.448;2023-11-18T13:15:59;7.20;1.00
18741;DHT22;9499;52.472;13.448;2023-11-18T13:18:27;7.10;99.90
18741;DHT22;9499;52.472;13.448;2023-11-18T13:20:54;7.00;1.00
18741;DHT22;9499;52.472;13.448;2023-11-18T13:23:24;6.90;1.00
18741;DHT22;9499;52.472;13.448;2023-11-18T13:25:54;6.90;1.00
18741;DHT22;9499;52.472;13.448;2023-11-18T13:28:22;6.80;1.00
18741;DHT22;9499;52.472;13.448;2023-11-18T13:30:49;6.80;1.00
18741;DHT22;9499;52.472;13.448;2023-11-18T13:33:15;6.80;1.00
18741;DHT22;9499;52.472;13.448;2023-11-18T13:35:44;6.80;99.90
18741;DHT22;9499;52.472;13.448;2023-11-18T13:38:12;6.80;1.00
18741;DHT22;9499;52.472;13.448;2023-11-18T13:40:44;6.80;1.00
18741;DHT22;9499;52.472;13.448;2023-11-18T13:43:12;6.80;1.00
18741;DHT22;9499;52.472;13.448;2023-11-18T13:45:38;6.80;99.90
18741;DHT22;9499;52.472;13.448;2023-11-18T13:48:07;6.80;42.80
18741;DHT22;9499;52.472;13.448;2023-11-18T13:50:34;6.70;99.90
18741;DHT22;9499;52.472;13.448;2023-11-18T13:53:03;6.60;1.00
18741;DHT22;9499;52.472;13.448;2023-11-18T13:55:31;6.50;1.00
18741;DHT22;9499;52.472;13.448;2023-11-18T13:57:59;6.50;1.00
18741;DHT22;9499;52.472;13.448;2023-11-18T14:00:27;6.40;99.90
18741;DHT22;9499;52.472;13.448;2023-11-18T14:02:55;6.30;99.90
18741;DHT22;9499;52.472;13.448;2023-11-18T14:05:23;6.30;99.90
18741;DHT22;9499;52.472;13.448;2023-11-18T14:07:51;6.20;99.90
18741;DHT22;9499;52.472;13.448;2023-11-18T14:10:18;6.20;99.90
18741;DHT22;9499;52.472;13.448;2023-11-18T14:13:01;6.20;99.90
18741;DHT22;9499;52.472;13.448;2023-11-18T14:15:28;6.10;99.90
18741;DHT22;9499;52.472;13.448;2023-11-18T14:17:55;6.10;1.00
18741;DHT22;9499;52.472;13.448;2023-11-18T14:20:21;6.10;1.00
18741;DHT22;9499;52.472;13.448;2023-11-18T14:22:48;6.00;1.00
18741;DHT22;9499;52.472;13.448;2023-11-18T14:25:16;6.00;1.00
18741;DHT22;9499;52.472;13.448;2023-11-18T14:27:42;6.00;1.00
18741;DHT22;9499;52.472;13.448;2023-11-18T14:30:12;5.90;1.00
18741;DHT22;9499;52.472;13.448;2023-11-18T14:32:38;6.00;1.00
18741;DHT22;9499;52.472;13.448;2023-11-18T14:35:06;6.00;1.00
18741;DHT22;9499;52.472;13.448;2023-11-18T14:37:37;6.10;1.00
18741;DHT22;9499;52.472;13.448;2023-11-18T14:40:05;6.10;1.00
18741;DHT22;9499;52.472;13.448;2023-11-18T14:42:33;6.00;1.00
18741;DHT22;9499;52.472;13.448;2023-11-18T14:45:00;6.00;1.00
18741;DHT22;9499;52.472;13.448;2023-11-18T14:47:31;6.10;1.00
18741;DHT22;9499;52.472;13.448;2023-11-18T14:49:58;6.10;1.00
18741;DHT22;9499;52.472;13.448;2023-11-18T14:52:25;6.10;1.00
18741;DHT22;9499;52.472;13.448;2023-11-18T14:54:51;6.10;1.00
18741;DHT22;9499;52.472;13.448;2023-11-18T14:57:18;6.00;1.00
18741;DHT22;9499;52.472;13.448;2023-11-18T14:59:44;5.90;1.00
18741;DHT22;9499;52.472;13.448;2023-11-18T15:02:11;5.90;1.00
18741;DHT22;9499;52.472;13.448;2023-11-18T15:04:39;5.80;1.00
18741;DHT22;9499;52.472;13.448;2023-11-18T15:07:06;5.80;1.00
18741;DHT22;9499;52.472;13.448;2023-11-18T15:09:32;5.80;1.00
18741;DHT22;9499;52.472;13.448;2023-11-18T15:11:59;5.80;1.00
18741;DHT22;9499;52.472;13.448;2023-11-18T15:14:25;5.80;1.00
18741;DHT22;9499;52.472;13.448;2023-11-18T15:16:52;5.80;1.00
18741;DHT22;9499;52.472;13.448;2023-11-18T15:19:18;5.80;1.00
18741;DHT22;9499;52.472;13.448;2023-11-18T15:21:46;5.70;1.00
18741;DHT22;9499;52.472;13.448;2023-11-18T15:24:14;5.70;1.00
18741;DHT22;9499;52.472;13.448;2023-11-18T15:26:42;5.70;1.00
18741;DHT22;9499;52.472;13.448;2023-11-18T15:29:09;5.60;1.00
18741;DHT22;9499;52.472;13.448;2023-11-18T15:31:40;5.60;1.00
18741;DHT22;9499;52.472;13.448;2023-11-18T15:34:06;5.60;1.00
18741;DHT22;9499;52.472;13.448;2023-11-18T15:36:33;5.60;1.00
18741;DHT22;9499;52.472;13.448;2023-11-18T15:39:01;5.60;1.00
18741;DHT22;9499;52.472;13.448;2023-11-18T15:41:28;5.70;1.00
18741;DHT22;9499;52.472;13.448;2023-11-18T15:43:55;5.60;1.00
18741;DHT22;9499;52.472;13.448;2023-11-18T15:46:21;5.60;1.00
18741;DHT22;9499;52.472;13.448;2023-11-18T15:48:48;5.60;1.00
18741;DHT22;9499;52.472;13.448;2023-11-18T15:51:14;5.60;1.00
18741;DHT22;9499;52.472;13.448;2023-11-18T15:53:41;5.60;1.00
18741;DHT22;9499;52.472;13.448;2023-11-18T15:56:09;5.60;1.00
18741;DHT22;9499;52.472;13.448;2023-11-18T15:58:36;5.60;1.00
18741;DHT22;9499;52.472;13.448;2023-11-18T16:01:03;5.70;1.00
18741;DHT22;9499;52.472;13.448;2023-11-18T16:03:30;5.70;1.00